18:36
Airports
History
Links
Donate
Help keep this website running!
PayPal
Bitcoin
Information on this page is community maintained and may be outdated or inaccurate and is intended for reference only or PC simulator navigating.
Always use approved charts for navigating.
LERT
Rota Ns
Rota Ns (LERT)
Rota, Andalucía, Spain (11520)
(C)
Lat/Lng:36° 38' 42.77" N / 6° 20' 58.12" W
36.645213 / -6.349479
Elevation:86'ft 26mMSL
ID / ICAO:LERT
Runways:1
Longest:(10-28) 3,685.4m 12,091ft Asphalt
Controlled:Yes
Distance To
Airport ID:
Airport Radio Frequencies
Ground: 130.7
Tower: 119.75
Approach: 120, 120.8, 128.5
Nearby VORs <50NM
Nearby NDBs
METARUpdated 07-20-17 18:00 GMT
Altimeter: 29.91
Visibility: 6.2 statute miles
Wind: 13 knots (240°)
Temp: 23°c 73°f
Humidity: 64.7%

METAR: LERT 201800Z 24013KT CAVOK 23/16 Q1013 NOSIG

(Powered by phpweather)
Runway 10 / 28
Dimensions:3685.4 x 61m 12091' x 200'ft
Surface:Asphalt
Edge Lights:High intensity
Runway 10 [A]Runway 28 [B]
Heading:096°TH 276°TH
Lat:
Lng:
36° 38' 49.94"N
6° 22' 11.85"W
36° 38' 35.59"N
6° 19' 44.4"W
TDZ:Yes, lighted
User Notes and Comments
Google Map
Nearby Airports
(C) Jerez 17.4 NM
LEJR (WX) ENE 66°
(C) TABLADA 52.2 NM
LE85 NNE 20°
(C) MORON AB 54.6 NM
LEMO (WX) NE 47°
(C) Sevilla 59.0 NM
LEZL (WX) NNE 25°
(C) LXGB Gibraltar 65.2 NM
LXGB (WX) ESE 121°
(C) IBN BATOUTA 67.8 NM
GMTT (WX) SSE 159°
4 Praia Verde Airstrip 72.0 NM
LPPV WNW 301°
VFR Chart
Flight Planning at SkyVector.com